Time;durP1;ratioP1;P1;durP2;ratioP2;P2;SDS_P1;SDS_P2;PMS_P1;PMS_P2;Temp;Humidity;BMP_temperature;BMP_pressure;BME280_temperature;BME280_humidity;BME280_pressure;Samples;Min_cycle;Max_cycle;Signal;HPM_P1;HPM_P2
2024/03/23 00:00:11;;;;;;;29.88;9.05;;;;;;;;;;4973541;28;25164;-77
2024/03/23 00:02:38;;;;;;;32.35;7.45;;;;;;;;;;4960084;28;25076;-75
2024/03/23 00:05:05;;;;;;;19.50;6.07;;;;;;;;;;4965053;28;25094;-75
2024/03/23 00:07:32;;;;;;;26.20;7.05;;;;;;;;;;4964550;28;25075;-76
2024/03/23 00:09:58;;;;;;;20.20;5.75;;;;;;;;;;4962884;28;25100;-76
2024/03/23 00:12:25;;;;;;;18.55;5.63;;;;;;;;;;4953845;28;25067;-76
2024/03/23 00:14:52;;;;;;;16.23;5.57;;;;;;;;;;4961641;28;25075;-78
2024/03/23 00:17:18;;;;;;;22.45;6.40;;;;;;;;;;4958986;28;25099;-75
2024/03/23 00:19:44;;;;;;;20.88;5.05;;;;;;;;;;4967833;28;25074;-76
2024/03/23 00:22:11;;;;;;;17.15;4.53;;;;;;;;;;4964946;28;25113;-77
2024/03/23 00:24:37;;;;;;;15.27;3.90;;;;;;;;;;4964778;28;25075;-75
2024/03/23 00:27:04;;;;;;;14.07;4.07;;;;;;;;;;4960764;28;25108;-76
2024/03/23 00:29:31;;;;;;;14.15;4.10;;;;;;;;;;4965729;28;25068;-75
2024/03/23 00:31:57;;;;;;;26.92;4.97;;;;;;;;;;4962000;28;25055;-75
2024/03/23 00:34:24;;;;;;;20.23;4.28;;;;;;;;;;4956707;28;25179;-75
2024/03/23 00:36:50;;;;;;;9.75;4.05;;;;;;;;;;4958615;28;25082;-75
2024/03/23 00:39:16;;;;;;;20.25;4.68;;;;;;;;;;4964622;28;25064;-75
2024/03/23 00:41:43;;;;;;;18.77;4.65;;;;;;;;;;4966246;28;25134;-74
2024/03/23 00:44:09;;;;;;;17.77;4.88;;;;;;;;;;4963667;28;25102;-74
2024/03/23 00:46:36;;;;;;;13.63;4.45;;;;;;;;;;4957206;28;25087;-75
2024/03/23 00:49:02;;;;;;;18.85;4.90;;;;;;;;;;4965649;28;25099;-76
2024/03/23 00:51:29;;;;;;;16.58;4.40;;;;;;;;;;4961875;28;25094;-74
2024/03/23 00:53:55;;;;;;;20.75;4.50;;;;;;;;;;4961281;28;25107;-75
2024/03/23 00:56:21;;;;;;;16.52;6.07;;;;;;;;;;4958406;28;25077;-75
2024/03/23 00:58:47;;;;;;;21.90;5.85;;;;;;;;;;4963772;28;25121;-74
2024/03/23 01:01:13;;;;;;;19.02;5.50;;;;;;;;;;4958192;28;25087;-75
2024/03/23 01:03:39;;;;;;;13.00;4.45;;;;;;;;;;4964563;28;25060;-75
2024/03/23 01:06:05;;;;;;;21.75;6.03;;;;;;;;;;4965791;28;25086;-76
2024/03/23 01:08:31;;;;;;;25.20;6.07;;;;;;;;;;4966489;28;25089;-74
2024/03/23 01:10:57;;;;;;;17.17;5.22;;;;;;;;;;4961193;28;25067;-74
2024/03/23 01:13:23;;;;;;;19.00;5.25;;;;;;;;;;4959715;28;25116;-78
2024/03/23 01:15:53;;;;;;;18.80;4.82;;;;;;;;;;4961454;28;25073;-75
2024/03/23 01:18:19;;;;;;;17.77;5.53;;;;;;;;;;4961582;28;25062;-75
2024/03/23 01:20:45;;;;;;;24.38;6.72;;;;;;;;;;4967422;28;25051;-74
2024/03/23 01:23:11;;;;;;;17.90;5.68;;;;;;;;;;4967279;28;25155;-75
2024/03/23 01:25:37;;;;;;;20.35;6.00;;;;;;;;;;4962788;28;25045;-76
2024/03/23 01:28:03;;;;;;;19.63;6.50;;;;;;;;;;4967351;28;25160;-75
2024/03/23 01:30:30;;;;;;;18.08;6.15;;;;;;;;;;4963801;28;25156;-74
2024/03/23 01:32:56;;;;;;;24.08;5.97;;;;;;;;;;4961099;28;25060;-75
2024/03/23 01:35:22;;;;;;;15.52;6.30;;;;;;;;;;4975713;28;25143;-76
2024/03/23 01:37:48;;;;;;;23.05;6.63;;;;;;;;;;4966544;28;25073;-77
2024/03/23 01:40:16;;;;;;;26.58;7.55;;;;;;;;;;4968539;28;25100;-75
2024/03/23 01:42:42;;;;;;;21.88;6.32;;;;;;;;;;4962574;28;25131;-75
2024/03/23 01:45:09;;;;;;;20.08;7.13;;;;;;;;;;4964937;28;25126;-75
2024/03/23 01:47:36;;;;;;;24.80;8.20;;;;;;;;;;4964462;28;25069;-75
2024/03/23 01:50:02;;;;;;;26.63;8.63;;;;;;;;;;4970696;28;25112;-76
2024/03/23 01:52:28;;;;;;;35.50;9.40;;;;;;;;;;4978781;28;25057;-76
2024/03/23 01:54:54;;;;;;;31.70;8.43;;;;;;;;;;4989511;28;25070;-76
2024/03/23 01:57:20;;;;;;;32.17;10.10;;;;;;;;;;4983209;28;25066;-77
2024/03/23 01:59:47;;;;;;;31.50;10.85;;;;;;;;;;4973453;28;25145;-75
2024/03/23 02:02:13;;;;;;;33.88;10.40;;;;;;;;;;4977493;28;25064;-75
2024/03/23 02:04:39;;;;;;;25.60;10.57;;;;;;;;;;4989228;28;25053;-75
2024/03/23 02:07:07;;;;;;;26.70;11.05;;;;;;;;;;4991920;28;25070;-76
2024/03/23 02:09:33;;;;;;;28.67;11.27;;;;;;;;;;4977340;28;25071;-76
2024/03/23 02:11:59;;;;;;;40.03;13.13;;;;;;;;;;4972741;28;25064;-75
2024/03/23 02:14:25;;;;;;;25.95;12.07;;;;;;;;;;4969753;28;25068;-75
2024/03/23 02:16:51;;;;;;;30.92;12.95;;;;;;;;;;4963761;28;25069;-75
2024/03/23 02:19:17;;;;;;;39.10;12.43;;;;;;;;;;4970362;28;25074;-74
2024/03/23 02:21:43;;;;;;;41.45;14.77;;;;;;;;;;4973609;28;25136;-75
2024/03/23 02:24:09;;;;;;;28.30;12.20;;;;;;;;;;4984236;28;25072;-76
2024/03/23 02:26:35;;;;;;;30.55;11.45;;;;;;;;;;4980489;28;25079;-75
2024/03/23 02:29:01;;;;;;;38.17;13.45;;;;;;;;;;4988023;28;25085;-76
2024/03/23 02:31:27;;;;;;;32.03;12.80;;;;;;;;;;4984151;28;25087;-75
2024/03/23 02:33:53;;;;;;;43.92;13.38;;;;;;;;;;4984114;28;25107;-76
2024/03/23 02:36:20;;;;;;;34.78;12.77;;;;;;;;;;4987680;28;25051;-76
2024/03/23 02:38:46;;;;;;;25.35;11.38;;;;;;;;;;4980618;28;25069;-76
2024/03/23 02:41:13;;;;;;;31.25;12.50;;;;;;;;;;4987518;28;25080;-76
2024/03/23 02:43:39;;;;;;;33.03;11.30;;;;;;;;;;4984182;28;25171;-76
2024/03/23 02:46:05;;;;;;;24.27;10.40;;;;;;;;;;4976650;28;25097;-75
2024/03/23 02:48:31;;;;;;;28.83;10.95;;;;;;;;;;4983512;28;25091;-76
2024/03/23 02:50:57;;;;;;;28.42;10.68;;;;;;;;;;4976786;28;25067;-75
2024/03/23 02:53:23;;;;;;;29.23;10.30;;;;;;;;;;4964365;28;25166;-74
2024/03/23 02:55:49;;;;;;;32.45;10.65;;;;;;;;;;4979859;28;25076;-75
2024/03/23 02:58:15;;;;;;;25.30;9.18;;;;;;;;;;4971212;28;25153;-75
2024/03/23 03:00:41;;;;;;;30.58;9.35;;;;;;;;;;4967146;28;25059;-74
2024/03/23 03:03:08;;;;;;;25.98;8.68;;;;;;;;;;4969437;28;25193;-74
2024/03/23 03:05:34;;;;;;;23.90;7.53;;;;;;;;;;4970609;28;25065;-75
2024/03/23 03:08:00;;;;;;;21.40;7.75;;;;;;;;;;4972783;28;25120;-75
2024/03/23 03:10:26;;;;;;;28.08;7.63;;;;;;;;;;4962545;28;25066;-76
2024/03/23 03:12:52;;;;;;;23.50;7.68;;;;;;;;;;4964411;28;25086;-74
2024/03/23 03:15:18;;;;;;;24.10;7.28;;;;;;;;;;4969672;28;25061;-74
2024/03/23 03:17:45;;;;;;;25.30;6.85;;;;;;;;;;4966938;28;25089;-76
2024/03/23 03:20:13;;;;;;;24.33;7.13;;;;;;;;;;4961839;28;25153;-76
2024/03/23 03:22:39;;;;;;;25.02;7.85;;;;;;;;;;4969734;28;25128;-75
2024/03/23 03:25:07;;;;;;;25.42;7.72;;;;;;;;;;4967176;28;25083;-76
2024/03/23 03:27:33;;;;;;;23.50;7.40;;;;;;;;;;4964186;28;25081;-75
2024/03/23 03:30:01;;;;;;;20.08;7.60;;;;;;;;;;4964774;28;25158;-75
2024/03/23 03:32:27;;;;;;;27.58;8.13;;;;;;;;;;4963440;28;25082;-75
2024/03/23 03:34:53;;;;;;;23.13;7.43;;;;;;;;;;4958417;28;25112;-74
2024/03/23 03:37:20;;;;;;;28.00;7.60;;;;;;;;;;4965904;28;25065;-74
2024/03/23 03:39:46;;;;;;;16.45;7.78;;;;;;;;;;4966750;28;25056;-75
2024/03/23 03:42:12;;;;;;;24.98;7.68;;;;;;;;;;4965500;28;25078;-75
2024/03/23 03:44:39;;;;;;;24.85;8.23;;;;;;;;;;4967777;28;25069;-75
2024/03/23 03:47:05;;;;;;;28.00;7.78;;;;;;;;;;4970672;28;25101;-74
2024/03/23 03:49:31;;;;;;;27.88;8.93;;;;;;;;;;4970728;28;25089;-74
2024/03/23 03:51:57;;;;;;;27.73;8.52;;;;;;;;;;4972188;28;25071;-76
2024/03/23 03:54:23;;;;;;;24.70;8.25;;;;;;;;;;4972235;28;25059;-73
2024/03/23 03:56:49;;;;;;;21.55;8.18;;;;;;;;;;4966506;28;25066;-74
2024/03/23 03:59:16;;;;;;;25.17;8.63;;;;;;;;;;4969251;28;25131;-75
2024/03/23 04:01:42;;;;;;;22.48;8.30;;;;;;;;;;4967342;28;25080;-76
2024/03/23 04:04:08;;;;;;;21.27;7.63;;;;;;;;;;4967547;28;25140;-76
2024/03/23 04:06:35;;;;;;;22.30;8.48;;;;;;;;;;4980154;28;25060;-74
2024/03/23 04:09:01;;;;;;;27.73;8.63;;;;;;;;;;4977475;28;25067;-74
2024/03/23 04:11:27;;;;;;;27.08;9.00;;;;;;;;;;4974865;28;25063;-76
2024/03/23 04:13:53;;;;;;;25.33;7.85;;;;;;;;;;4963425;28;25087;-75
2024/03/23 04:16:30;;;;;;;24.23;7.90;;;;;;;;;;4984243;28;25079;-74
2024/03/23 04:18:56;;;;;;;27.70;8.48;;;;;;;;;;4963927;28;25078;-75
2024/03/23 04:21:25;;;;;;;22.55;8.80;;;;;;;;;;4968710;28;25069;-76
2024/03/23 04:23:51;;;;;;;26.25;7.97;;;;;;;;;;4967219;28;25052;-75
2024/03/23 04:26:17;;;;;;;25.02;8.30;;;;;;;;;;4965719;28;25091;-74
2024/03/23 04:28:43;;;;;;;24.65;8.98;;;;;;;;;;4974295;28;25059;-74
2024/03/23 04:31:09;;;;;;;19.40;7.30;;;;;;;;;;4976870;28;25056;-77
2024/03/23 04:33:35;;;;;;;22.20;6.15;;;;;;;;;;4975416;28;25049;-74
2024/03/23 04:36:01;;;;;;;26.55;7.00;;;;;;;;;;4971778;28;25072;-74
2024/03/23 04:38:27;;;;;;;28.88;7.75;;;;;;;;;;4963461;28;25058;-74
2024/03/23 04:40:56;;;;;;;23.13;6.97;;;;;;;;;;4964573;28;25067;-73
2024/03/23 04:43:23;;;;;;;22.20;7.45;;;;;;;;;;4966216;28;25094;-75
2024/03/23 04:45:49;;;;;;;27.85;7.35;;;;;;;;;;4967833;28;25082;-75
2024/03/23 04:48:15;;;;;;;20.17;7.18;;;;;;;;;;4964112;28;25062;-76
2024/03/23 04:50:41;;;;;;;21.17;6.28;;;;;;;;;;4962441;28;25059;-73
2024/03/23 04:53:07;;;;;;;17.88;6.20;;;;;;;;;;4961595;28;25055;-75
2024/03/23 04:55:33;;;;;;;16.63;6.05;;;;;;;;;;4969448;28;25073;-74
2024/03/23 04:57:59;;;;;;;22.27;6.25;;;;;;;;;;4970259;28;25133;-75
2024/03/23 05:00:26;;;;;;;27.80;6.97;;;;;;;;;;4965853;28;25145;-74
2024/03/23 05:02:53;;;;;;;18.50;5.90;;;;;;;;;;4969058;28;25080;-74
2024/03/23 05:05:19;;;;;;;26.02;6.18;;;;;;;;;;4965660;28;25054;-73
2024/03/23 05:07:45;;;;;;;18.65;6.50;;;;;;;;;;4964729;28;25050;-75
2024/03/23 05:10:11;;;;;;;20.25;5.50;;;;;;;;;;4967689;28;25072;-75
2024/03/23 05:12:40;;;;;;;22.17;5.60;;;;;;;;;;4966262;28;25045;-76
2024/03/23 05:15:07;;;;;;;17.75;5.72;;;;;;;;;;4966034;28;25114;-74
2024/03/23 05:17:33;;;;;;;25.85;5.72;;;;;;;;;;4958506;28;25051;-75
2024/03/23 05:19:59;;;;;;;20.20;5.43;;;;;;;;;;4968586;28;25144;-75
2024/03/23 05:22:27;;;;;;;21.10;5.40;;;;;;;;;;4965022;28;25071;-74
2024/03/23 05:24:53;;;;;;;17.77;5.22;;;;;;;;;;4965895;28;25146;-76
2024/03/23 05:27:19;;;;;;;17.17;4.93;;;;;;;;;;4965984;28;25047;-73
2024/03/23 05:29:45;;;;;;;16.13;5.93;;;;;;;;;;4970969;28;25064;-73
2024/03/23 05:32:11;;;;;;;17.95;5.43;;;;;;;;;;4966491;28;25052;-76
2024/03/23 05:34:37;;;;;;;19.27;6.03;;;;;;;;;;4973370;28;25064;-76
2024/03/23 05:37:04;;;;;;;21.08;5.78;;;;;;;;;;4973075;28;25083;-73
2024/03/23 05:39:30;;;;;;;26.50;5.57;;;;;;;;;;4964663;28;25075;-76
2024/03/23 05:41:56;;;;;;;21.23;5.65;;;;;;;;;;4967839;28;25075;-74
2024/03/23 05:44:22;;;;;;;20.67;4.60;;;;;;;;;;4959259;28;25101;-75
2024/03/23 05:46:51;;;;;;;20.17;4.68;;;;;;;;;;4970860;28;25101;-74
2024/03/23 05:49:18;;;;;;;17.85;5.47;;;;;;;;;;4967761;28;25091;-74
2024/03/23 05:51:44;;;;;;;31.83;6.28;;;;;;;;;;4969519;28;25075;-73
2024/03/23 05:54:10;;;;;;;25.73;6.07;;;;;;;;;;4970312;28;25058;-76
2024/03/23 05:56:36;;;;;;;18.25;6.60;;;;;;;;;;4968377;28;25107;-77
2024/03/23 05:59:03;;;;;;;24.75;5.30;;;;;;;;;;4972448;28;25079;-75
2024/03/23 06:01:32;;;;;;;19.58;6.20;;;;;;;;;;4971774;28;25065;-74
2024/03/23 06:03:58;;;;;;;17.52;5.63;;;;;;;;;;4969874;28;25146;-76
2024/03/23 06:06:24;;;;;;;20.67;4.65;;;;;;;;;;4975276;28;25136;-75
2024/03/23 06:08:50;;;;;;;21.02;4.95;;;;;;;;;;4970959;28;25060;-74
2024/03/23 06:11:16;;;;;;;22.00;6.38;;;;;;;;;;4970267;28;25070;-75
2024/03/23 06:13:42;;;;;;;19.05;4.95;;;;;;;;;;4984178;28;25092;-76
2024/03/23 06:16:08;;;;;;;17.67;4.93;;;;;;;;;;4986887;28;25052;-77
2024/03/23 06:18:34;;;;;;;17.65;5.20;;;;;;;;;;4981469;28;25070;-75
2024/03/23 06:21:00;;;;;;;18.70;4.55;;;;;;;;;;4979926;28;25071;-79
2024/03/23 06:23:26;;;;;;;21.42;4.93;;;;;;;;;;4980244;28;25055;-75
2024/03/23 06:25:52;;;;;;;18.45;4.43;;;;;;;;;;4982154;28;25101;-79
2024/03/23 06:28:18;;;;;;;31.58;4.30;;;;;;;;;;4987246;28;25079;-76
2024/03/23 06:30:44;;;;;;;23.20;5.43;;;;;;;;;;4983855;28;25074;-77
2024/03/23 06:33:10;;;;;;;14.93;4.55;;;;;;;;;;4978831;28;25060;-77
2024/03/23 06:35:36;;;;;;;25.13;4.45;;;;;;;;;;4964987;28;25073;-75
2024/03/23 06:38:02;;;;;;;16.58;4.22;;;;;;;;;;4964587;28;25108;-74
2024/03/23 06:40:28;;;;;;;24.20;3.97;;;;;;;;;;4962586;28;25059;-75
2024/03/23 06:42:54;;;;;;;18.83;4.40;;;;;;;;;;4967451;28;25098;-75
2024/03/23 06:45:23;;;;;;;24.88;4.93;;;;;;;;;;4967984;28;25064;-76
2024/03/23 06:47:49;;;;;;;35.22;5.10;;;;;;;;;;4965517;28;25072;-74
2024/03/23 06:50:15;;;;;;;24.25;4.43;;;;;;;;;;4971390;28;25101;-77
2024/03/23 06:52:41;;;;;;;17.73;3.50;;;;;;;;;;4964846;28;25088;-75
2024/03/23 06:55:08;;;;;;;20.02;4.03;;;;;;;;;;4965906;28;25140;-75
2024/03/23 06:57:34;;;;;;;14.68;4.75;;;;;;;;;;4968728;28;25150;-77
2024/03/23 07:00:00;;;;;;;22.75;6.15;;;;;;;;;;4971308;28;25067;-76
2024/03/23 07:02:26;;;;;;;17.52;3.83;;;;;;;;;;4967844;28;25078;-75
2024/03/23 07:04:52;;;;;;;31.20;4.15;;;;;;;;;;4971591;28;25058;-77
2024/03/23 07:07:18;;;;;;;18.50;3.75;;;;;;;;;;4981519;28;25082;-76
2024/03/23 07:09:44;;;;;;;23.05;3.58;;;;;;;;;;4968247;28;25145;-76
2024/03/23 07:12:10;;;;;;;17.13;3.47;;;;;;;;;;4970020;28;25046;-80
2024/03/23 07:14:36;;;;;;;23.13;5.43;;;;;;;;;;4976078;28;25153;-76
2024/03/23 07:17:02;;;;;;;16.08;3.50;;;;;;;;;;4971699;28;25068;-75
2024/03/23 07:19:28;;;;;;;21.10;3.88;;;;;;;;;;4972101;28;25064;-75
2024/03/23 07:21:54;;;;;;;21.73;3.78;;;;;;;;;;4966912;28;25079;-74
2024/03/23 07:24:20;;;;;;;18.17;3.80;;;;;;;;;;4972215;28;25061;-75
2024/03/23 07:26:47;;;;;;;28.13;4.47;;;;;;;;;;4965242;28;25060;-74
2024/03/23 07:29:13;;;;;;;18.77;3.60;;;;;;;;;;4970077;28;25075;-72
2024/03/23 07:31:39;;;;;;;17.38;3.30;;;;;;;;;;4969650;28;25057;-74
2024/03/23 07:34:05;;;;;;;24.88;3.65;;;;;;;;;;4969762;28;25113;-75
2024/03/23 07:36:31;;;;;;;25.75;5.13;;;;;;;;;;4962665;28;25076;-75
2024/03/23 07:38:57;;;;;;;17.65;4.00;;;;;;;;;;4969008;28;25049;-75
2024/03/23 07:41:23;;;;;;;17.75;3.55;;;;;;;;;;4970708;28;25075;-74
2024/03/23 07:43:50;;;;;;;11.07;3.17;;;;;;;;;;4958903;28;25063;-73
2024/03/23 07:46:16;;;;;;;17.65;3.55;;;;;;;;;;4969862;28;25063;-74
2024/03/23 07:48:42;;;;;;;15.00;3.45;;;;;;;;;;4958482;28;25087;-75
2024/03/23 07:51:17;;;;;;;18.88;3.97;;;;;;;;;;4967361;28;25084;-77
2024/03/23 07:53:45;;;;;;;24.15;4.88;;;;;;;;;;4959959;28;25055;-76
2024/03/23 07:56:11;;;;;;;14.10;3.67;;;;;;;;;;4964034;28;25081;-75
2024/03/23 07:58:38;;;;;;;18.73;4.05;;;;;;;;;;4989937;28;25053;-74
2024/03/23 08:01:05;;;;;;;18.50;3.35;;;;;;;;;;4963768;28;25061;-74
2024/03/23 08:03:31;;;;;;;23.20;4.43;;;;;;;;;;4967313;28;25079;-74
2024/03/23 08:05:57;;;;;;;20.27;4.45;;;;;;;;;;4970249;28;25089;-75
2024/03/23 08:08:23;;;;;;;24.58;4.07;;;;;;;;;;4970287;28;25102;-73
2024/03/23 08:10:53;;;;;;;20.30;3.75;;;;;;;;;;4969257;28;25089;-76
2024/03/23 08:13:19;;;;;;;17.88;4.50;;;;;;;;;;4963391;28;25157;-74
2024/03/23 08:15:46;;;;;;;25.63;4.35;;;;;;;;;;4959232;28;25067;-76
2024/03/23 08:18:13;;;;;;;13.07;3.75;;;;;;;;;;4967558;28;25057;-75
2024/03/23 08:20:39;;;;;;;15.43;4.07;;;;;;;;;;4966999;28;25060;-75
2024/03/23 08:23:08;;;;;;;21.17;4.35;;;;;;;;;;4958705;28;25081;-76
2024/03/23 08:25:35;;;;;;;18.15;3.83;;;;;;;;;;4965959;28;25091;-74
2024/03/23 08:28:01;;;;;;;18.75;3.38;;;;;;;;;;4965236;28;25051;-75
2024/03/23 08:30:27;;;;;;;15.50;3.67;;;;;;;;;;4965766;28;25070;-74
2024/03/23 08:32:53;;;;;;;21.52;3.95;;;;;;;;;;4963954;28;25136;-72
2024/03/23 08:35:19;;;;;;;20.08;3.25;;;;;;;;;;4961660;28;25089;-75
2024/03/23 08:37:46;;;;;;;18.77;3.80;;;;;;;;;;4957621;28;25068;-72
2024/03/23 08:40:12;;;;;;;16.95;3.95;;;;;;;;;;4964333;28;25060;-77
2024/03/23 08:42:38;;;;;;;14.45;3.53;;;;;;;;;;4957737;28;25052;-74
2024/03/23 08:45:07;;;;;;;19.00;3.90;;;;;;;;;;4971082;28;25055;-74
2024/03/23 08:47:34;;;;;;;10.50;3.15;;;;;;;;;;4986931;28;25087;-75
2024/03/23 08:50:00;;;;;;;17.13;3.97;;;;;;;;;;4964933;28;25106;-74
2024/03/23 08:52:28;;;;;;;15.30;3.75;;;;;;;;;;4963566;28;25105;-77
2024/03/23 08:54:55;;;;;;;24.20;3.88;;;;;;;;;;4964986;28;25183;-76
2024/03/23 08:57:21;;;;;;;17.80;3.78;;;;;;;;;;4964012;28;25116;-74
2024/03/23 08:59:47;;;;;;;21.30;4.82;;;;;;;;;;4964782;28;25143;-73
2024/03/23 09:02:13;;;;;;;13.80;3.72;;;;;;;;;;4957734;28;25155;-76
2024/03/23 09:04:39;;;;;;;11.45;3.75;;;;;;;;;;4966578;28;25062;-73
2024/03/23 09:07:05;;;;;;;16.38;3.20;;;;;;;;;;4961878;28;25100;-75
2024/03/23 09:09:31;;;;;;;16.20;3.88;;;;;;;;;;4968118;28;25075;-73
2024/03/23 09:11:57;;;;;;;10.30;3.30;;;;;;;;;;4966498;28;25098;-75
2024/03/23 09:14:23;;;;;;;17.98;3.70;;;;;;;;;;4962402;28;25063;-79
2024/03/23 09:16:52;;;;;;;18.25;4.07;;;;;;;;;;4964038;28;25047;-75
2024/03/23 09:19:18;;;;;;;21.40;4.13;;;;;;;;;;4962496;28;25065;-74
2024/03/23 09:21:44;;;;;;;15.98;4.55;;;;;;;;;;4966428;28;25140;-75
2024/03/23 09:24:10;;;;;;;16.23;3.88;;;;;;;;;;4972575;28;25066;-76
2024/03/23 09:26:36;;;;;;;18.17;4.90;;;;;;;;;;4971472;28;25076;-74
2024/03/23 09:29:02;;;;;;;16.20;4.28;;;;;;;;;;4970314;28;25081;-76
2024/03/23 09:31:29;;;;;;;23.95;3.95;;;;;;;;;;4965682;28;25072;-75
2024/03/23 09:33:55;;;;;;;13.23;3.67;;;;;;;;;;4959237;28;25082;-73
2024/03/23 09:36:21;;;;;;;17.83;3.42;;;;;;;;;;4969073;28;25146;-75
2024/03/23 09:38:47;;;;;;;11.65;3.70;;;;;;;;;;4960166;28;25140;-76
2024/03/23 09:41:14;;;;;;;21.77;4.53;;;;;;;;;;4963090;28;25138;-77
2024/03/23 09:43:41;;;;;;;14.15;3.63;;;;;;;;;;4962773;28;25064;-73
2024/03/23 09:46:08;;;;;;;14.65;3.50;;;;;;;;;;4971756;28;25102;-75
2024/03/23 09:48:34;;;;;;;14.32;5.05;;;;;;;;;;4967339;28;25141;-72
2024/03/23 09:51:00;;;;;;;21.55;5.53;;;;;;;;;;4971468;28;25058;-75
2024/03/23 09:53:26;;;;;;;18.02;4.45;;;;;;;;;;4966654;28;25065;-75
2024/03/23 09:55:52;;;;;;;22.77;4.70;;;;;;;;;;4967121;28;25161;-75
2024/03/23 09:58:19;;;;;;;9.15;3.70;;;;;;;;;;4974774;28;25113;-74
2024/03/23 10:00:45;;;;;;;14.02;4.20;;;;;;;;;;4999566;28;25070;-73
2024/03/23 10:03:11;;;;;;;15.98;4.50;;;;;;;;;;4979746;28;25057;-74
2024/03/23 10:05:37;;;;;;;17.27;4.88;;;;;;;;;;5006681;28;25142;-75
2024/03/23 10:08:16;;;;;;;17.77;4.22;;;;;;;;;;4987254;28;25055;-75
2024/03/23 10:10:42;;;;;;;13.32;4.00;;;;;;;;;;4974927;28;25098;-75
2024/03/23 10:13:08;;;;;;;14.98;4.63;;;;;;;;;;4981168;28;25088;-77
2024/03/23 10:15:35;;;;;;;11.70;3.70;;;;;;;;;;4973789;28;25056;-73
2024/03/23 10:18:16;;;;;;;16.60;4.78;;;;;;;;;;4975055;28;25058;-76
2024/03/23 10:20:42;;;;;;;13.02;4.97;;;;;;;;;;4972175;28;25087;-73
2024/03/23 10:23:16;;;;;;;11.73;3.78;;;;;;;;;;4979004;28;25081;-73
2024/03/23 10:25:42;;;;;;;20.17;4.35;;;;;;;;;;4967100;28;25085;-76
2024/03/23 10:28:09;;;;;;;15.30;3.88;;;;;;;;;;4968123;28;25108;-78
2024/03/23 10:30:35;;;;;;;15.65;3.63;;;;;;;;;;4972098;28;25096;-75
2024/03/23 10:33:11;;;;;;;13.20;2.75;;;;;;;;;;4967525;28;25103;-73
2024/03/23 10:35:37;;;;;;;18.45;3.70;;;;;;;;;;4968177;28;25069;-73
2024/03/23 10:38:07;;;;;;;9.60;2.88;;;;;;;;;;4960842;28;25093;-77
2024/03/23 10:40:36;;;;;;;14.70;2.88;;;;;;;;;;4965298;28;25116;-74
2024/03/23 10:43:03;;;;;;;10.27;2.83;;;;;;;;;;4971176;28;25097;-76
2024/03/23 10:45:29;;;;;;;16.15;3.08;;;;;;;;;;4965408;28;25058;-76
2024/03/23 10:47:55;;;;;;;20.67;5.28;;;;;;;;;;4969659;28;25083;-74
2024/03/23 10:50:22;;;;;;;16.42;3.20;;;;;;;;;;4967425;28;25054;-73
2024/03/23 10:52:48;;;;;;;13.13;3.50;;;;;;;;;;4968914;28;25052;-75
2024/03/23 10:55:15;;;;;;;16.42;4.30;;;;;;;;;;4965572;28;25067;-74
2024/03/23 10:57:43;;;;;;;13.85;2.90;;;;;;;;;;4963881;28;25100;-74
2024/03/23 11:00:10;;;;;;;17.70;2.95;;;;;;;;;;4965680;28;25077;-76
2024/03/23 11:02:36;;;;;;;15.63;3.13;;;;;;;;;;4963509;28;25073;-75
2024/03/23 11:05:02;;;;;;;11.15;3.15;;;;;;;;;;4965614;28;25056;-76
2024/03/23 11:07:29;;;;;;;14.05;3.42;;;;;;;;;;4965867;28;25117;-78
2024/03/23 11:09:56;;;;;;;17.23;3.15;;;;;;;;;;4963690;28;25155;-74
2024/03/23 11:12:22;;;;;;;19.90;4.55;;;;;;;;;;4967930;28;25083;-73
2024/03/23 11:14:50;;;;;;;15.07;3.92;;;;;;;;;;4965600;28;25100;-75
2024/03/23 11:17:19;;;;;;;16.50;3.20;;;;;;;;;;4966756;28;25070;-74
2024/03/23 11:19:54;;;;;;;17.58;3.08;;;;;;;;;;4963919;28;25110;-74
2024/03/23 11:22:39;;;;;;;14.57;3.25;;;;;;;;;;4967276;28;25067;-73
2024/03/23 11:25:20;;;;;;;22.65;3.42;;;;;;;;;;4966017;28;25154;-72
2024/03/23 11:27:46;;;;;;;12.82;3.00;;;;;;;;;;4964322;28;25029;-73
2024/03/23 11:30:17;;;;;;;18.65;3.72;;;;;;;;;;4969502;28;25056;-74
2024/03/23 11:32:44;;;;;;;13.95;2.95;;;;;;;;;;4966385;28;25113;-73
2024/03/23 11:35:10;;;;;;;13.38;3.67;;;;;;;;;;4965157;28;25072;-77
2024/03/23 11:37:37;;;;;;;15.38;3.15;;;;;;;;;;4963388;28;25059;-75
2024/03/23 11:40:19;;;;;;;17.15;4.03;;;;;;;;;;4967561;28;25072;-75
2024/03/23 11:42:45;;;;;;;13.38;2.83;;;;;;;;;;4964017;28;25057;-74
2024/03/23 11:45:12;;;;;;;8.80;2.50;;;;;;;;;;4967206;28;25063;-75
2024/03/23 11:47:37;;;;;;;13.38;3.33;;;;;;;;;;4962983;28;25060;-75
2024/03/23 11:50:04;;;;;;;19.85;3.05;;;;;;;;;;4966333;28;25105;-73
2024/03/23 11:52:30;;;;;;;12.45;2.88;;;;;;;;;;4962971;28;25176;-73
2024/03/23 11:55:07;;;;;;;12.00;2.92;;;;;;;;;;4973214;28;25082;-73
2024/03/23 11:57:33;;;;;;;10.95;3.20;;;;;;;;;;4966392;28;25049;-73
2024/03/23 11:59:59;;;;;;;12.25;3.08;;;;;;;;;;4968142;28;25139;-77
2024/03/23 12:02:25;;;;;;;12.40;3.00;;;;;;;;;;4970568;28;25066;-72
2024/03/23 12:04:52;;;;;;;12.02;2.92;;;;;;;;;;4966286;28;25139;-75
2024/03/23 12:07:21;;;;;;;15.88;3.28;;;;;;;;;;4963937;28;25158;-73
2024/03/23 12:09:48;;;;;;;12.35;2.55;;;;;;;;;;4962636;28;25104;-73
2024/03/23 12:12:18;;;;;;;17.65;3.38;;;;;;;;;;4967582;28;25069;-76
2024/03/23 12:15:01;;;;;;;15.52;2.88;;;;;;;;;;4966080;28;25128;-74
2024/03/23 12:17:27;;;;;;;13.55;3.10;;;;;;;;;;4964459;28;25070;-74
2024/03/23 12:19:53;;;;;;;15.57;3.08;;;;;;;;;;4974359;28;25130;-75
2024/03/23 12:22:22;;;;;;;13.90;3.50;;;;;;;;;;4964691;28;25063;-75
2024/03/23 12:24:49;;;;;;;15.13;2.90;;;;;;;;;;4968998;28;25088;-78
2024/03/23 12:27:15;;;;;;;11.02;2.97;;;;;;;;;;4966403;28;25048;-76
2024/03/23 12:29:47;;;;;;;15.93;4.10;;;;;;;;;;4967832;28;25060;-75
2024/03/23 12:32:14;;;;;;;12.75;2.92;;;;;;;;;;4966376;28;25084;-74
2024/03/23 12:34:41;;;;;;;9.35;2.30;;;;;;;;;;4963146;28;25096;-73
2024/03/23 12:37:07;;;;;;;15.93;2.85;;;;;;;;;;4970846;28;25125;-75
2024/03/23 12:39:35;;;;;;;10.98;2.53;;;;;;;;;;4965170;28;25062;-76
2024/03/23 12:42:01;;;;;;;13.57;3.13;;;;;;;;;;4965835;28;25053;-74
2024/03/23 12:44:27;;;;;;;14.48;3.50;;;;;;;;;;4962543;28;25106;-79
2024/03/23 12:46:53;;;;;;;17.15;3.20;;;;;;;;;;4966330;28;25106;-77
2024/03/23 12:49:19;;;;;;;12.18;2.40;;;;;;;;;;4966813;28;25084;-75
2024/03/23 12:51:48;;;;;;;14.32;2.83;;;;;;;;;;4966334;28;25145;-75
2024/03/23 12:54:14;;;;;;;15.98;2.85;;;;;;;;;;4962351;28;25168;-73
2024/03/23 12:56:40;;;;;;;12.52;2.70;;;;;;;;;;4963245;28;25085;-75
2024/03/23 12:59:07;;;;;;;13.27;2.85;;;;;;;;;;4970697;28;25075;-74
2024/03/23 13:01:33;;;;;;;12.18;3.10;;;;;;;;;;4965552;28;25076;-76
2024/03/23 13:04:00;;;;;;;9.13;2.78;;;;;;;;;;4958805;28;25065;-73
2024/03/23 13:06:27;;;;;;;13.65;3.35;;;;;;;;;;4961847;28;25123;-73
2024/03/23 13:08:54;;;;;;;10.07;2.47;;;;;;;;;;4968953;28;25090;-76
2024/03/23 13:11:20;;;;;;;11.82;2.35;;;;;;;;;;4968745;28;25160;-76
2024/03/23 13:13:46;;;;;;;19.38;2.97;;;;;;;;;;4971405;28;25087;-75
2024/03/23 13:16:12;;;;;;;16.77;2.97;;;;;;;;;;4971455;28;25086;-74
2024/03/23 13:18:38;;;;;;;10.98;2.97;;;;;;;;;;4979892;28;25085;-74
2024/03/23 13:21:04;;;;;;;13.65;3.00;;;;;;;;;;4975695;28;25054;-75
2024/03/23 13:23:31;;;;;;;14.73;2.58;;;;;;;;;;4967880;28;25073;-77
2024/03/23 13:25:57;;;;;;;7.95;2.72;;;;;;;;;;4964098;28;25060;-81
2024/03/23 13:28:23;;;;;;;12.45;2.42;;;;;;;;;;4972505;28;25072;-78
2024/03/23 13:30:56;;;;;;;12.60;2.33;;;;;;;;;;4973377;28;25069;-77
2024/03/23 13:33:22;;;;;;;16.13;3.28;;;;;;;;;;4968581;28;25043;-74
2024/03/23 13:35:56;;;;;;;8.40;2.60;;;;;;;;;;4975977;28;25070;-74
2024/03/23 13:38:22;;;;;;;13.27;3.45;;;;;;;;;;4970602;28;25079;-74
2024/03/23 13:40:51;;;;;;;13.82;2.90;;;;;;;;;;4971753;28;25069;-76
2024/03/23 13:43:17;;;;;;;15.60;2.58;;;;;;;;;;4972529;28;25057;-74
2024/03/23 13:45:43;;;;;;;7.10;1.92;;;;;;;;;;4965788;28;25103;-72
2024/03/23 13:48:09;;;;;;;12.63;2.25;;;;;;;;;;4960433;28;25087;-75
2024/03/23 13:50:36;;;;;;;15.27;3.10;;;;;;;;;;4991563;28;25055;-76
2024/03/23 13:53:02;;;;;;;15.75;3.35;;;;;;;;;;5000696;28;25066;-75
2024/03/23 13:55:28;;;;;;;15.20;2.28;;;;;;;;;;4992238;28;25139;-76
2024/03/23 13:57:54;;;;;;;11.88;2.72;;;;;;;;;;4996235;28;25074;-76
2024/03/23 14:00:20;;;;;;;15.73;2.45;;;;;;;;;;4985280;28;25051;-78
2024/03/23 14:02:46;;;;;;;10.88;2.22;;;;;;;;;;4971127;28;25047;-76
2024/03/23 14:05:12;;;;;;;15.20;2.80;;;;;;;;;;4973251;28;25070;-76
2024/03/23 14:07:38;;;;;;;10.80;2.10;;;;;;;;;;4980311;28;25110;-74
2024/03/23 14:10:06;;;;;;;13.25;2.35;;;;;;;;;;4970563;28;25070;-75
2024/03/23 14:12:32;;;;;;;16.08;2.78;;;;;;;;;;4983756;28;25050;-73
2024/03/23 14:14:58;;;;;;;3.58;1.40;;;;;;;;;;4987254;28;25056;-74
2024/03/23 14:17:25;;;;;;;3.63;0.98;;;;;;;;;;4961378;28;25133;-72
2024/03/23 14:19:51;;;;;;;2.35;0.77;;;;;;;;;;4972449;28;25057;-74
2024/03/23 14:22:21;;;;;;;5.13;1.10;;;;;;;;;;4967784;28;25078;-75
2024/03/23 14:24:47;;;;;;;8.30;1.50;;;;;;;;;;4982273;28;25152;-75